sensor_id;sensor_type;location;lat;lon;timestamp;temperature;humidity
27619;DHT22;15039;50.830;4.730;2023-04-06T00:00:56;6.30;99.90
27619;DHT22;15039;50.830;4.730;2023-04-06T00:03:21;6.30;99.90
27619;DHT22;15039;50.830;4.730;2023-04-06T00:05:48;6.30;99.90
27619;DHT22;15039;50.830;4.730;2023-04-06T00:08:13;6.20;99.90
27619;DHT22;15039;50.830;4.730;2023-04-06T00:10:39;6.30;99.90
27619;DHT22;15039;50.830;4.730;2023-04-06T00:13:06;6.40;99.90
27619;DHT22;15039;50.830;4.730;2023-04-06T00:15:32;6.40;99.90
27619;DHT22;15039;50.830;4.730;2023-04-06T00:17:57;6.40;99.90
27619;DHT22;15039;50.830;4.730;2023-04-06T00:20:23;6.20;99.90
27619;DHT22;15039;50.830;4.730;2023-04-06T00:22:49;6.30;99.90
27619;DHT22;15039;50.830;4.730;2023-04-06T00:25:14;6.40;99.90
27619;DHT22;15039;50.830;4.730;2023-04-06T00:27:41;6.40;99.90
27619;DHT22;15039;50.830;4.730;2023-04-06T00:30:07;6.20;99.90
27619;DHT22;15039;50.830;4.730;2023-04-06T00:32:34;6.20;99.90
27619;DHT22;15039;50.830;4.730;2023-04-06T00:35:05;6.20;99.90
27619;DHT22;15039;50.830;4.730;2023-04-06T00:37:31;6.30;99.90
27619;DHT22;15039;50.830;4.730;2023-04-06T00:39:57;6.40;99.90
27619;DHT22;15039;50.830;4.730;2023-04-06T00:42:24;6.50;99.90
27619;DHT22;15039;50.830;4.730;2023-04-06T00:44:57;6.50;99.90
27619;DHT22;15039;50.830;4.730;2023-04-06T00:47:24;6.60;99.90
27619;DHT22;15039;50.830;4.730;2023-04-06T00:49:51;6.50;99.90
27619;DHT22;15039;50.830;4.730;2023-04-06T00:52:17;6.40;99.90
27619;DHT22;15039;50.830;4.730;2023-04-06T00:54:43;6.40;99.90
27619;DHT22;15039;50.830;4.730;2023-04-06T00:57:08;6.50;99.90
27619;DHT22;15039;50.830;4.730;2023-04-06T00:59:34;6.60;99.90
27619;DHT22;15039;50.830;4.730;2023-04-06T01:02:00;6.70;99.90
27619;DHT22;15039;50.830;4.730;2023-04-06T01:04:27;6.70;99.90
27619;DHT22;15039;50.830;4.730;2023-04-06T01:06:52;6.60;99.90
27619;DHT22;15039;50.830;4.730;2023-04-06T01:09:18;6.60;99.90
27619;DHT22;15039;50.830;4.730;2023-04-06T01:11:44;6.50;99.90
27619;DHT22;15039;50.830;4.730;2023-04-06T01:14:09;6.60;99.90
27619;DHT22;15039;50.830;4.730;2023-04-06T01:16:36;6.70;99.90
27619;DHT22;15039;50.830;4.730;2023-04-06T01:19:10;6.60;99.90
27619;DHT22;15039;50.830;4.730;2023-04-06T01:21:36;6.60;99.90
27619;DHT22;15039;50.830;4.730;2023-04-06T01:24:02;6.60;99.90
27619;DHT22;15039;50.830;4.730;2023-04-06T01:26:28;6.60;99.90
27619;DHT22;15039;50.830;4.730;2023-04-06T01:28:55;6.60;99.90
27619;DHT22;15039;50.830;4.730;2023-04-06T01:31:21;6.60;99.90
27619;DHT22;15039;50.830;4.730;2023-04-06T01:33:47;6.60;99.90
27619;DHT22;15039;50.830;4.730;2023-04-06T01:36:13;6.60;99.90
27619;DHT22;15039;50.830;4.730;2023-04-06T01:38:39;6.60;99.90
27619;DHT22;15039;50.830;4.730;2023-04-06T01:41:05;6.80;99.90
27619;DHT22;15039;50.830;4.730;2023-04-06T01:43:30;6.80;99.90
27619;DHT22;15039;50.830;4.730;2023-04-06T01:45:56;6.90;99.90
27619;DHT22;15039;50.830;4.730;2023-04-06T01:48:21;6.90;99.90
27619;DHT22;15039;50.830;4.730;2023-04-06T01:50:47;6.90;99.90
27619;DHT22;15039;50.830;4.730;2023-04-06T01:53:13;7.00;99.90
27619;DHT22;15039;50.830;4.730;2023-04-06T01:55:39;7.10;99.90
27619;DHT22;15039;50.830;4.730;2023-04-06T01:58:05;7.20;99.90
27619;DHT22;15039;50.830;4.730;2023-04-06T02:00:31;7.20;99.90
27619;DHT22;15039;50.830;4.730;2023-04-06T02:02:56;7.10;99.90
27619;DHT22;15039;50.830;4.730;2023-04-06T02:05:22;7.00;99.90
27619;DHT22;15039;50.830;4.730;2023-04-06T02:07:47;7.10;99.90
27619;DHT22;15039;50.830;4.730;2023-04-06T02:10:14;7.10;99.90
27619;DHT22;15039;50.830;4.730;2023-04-06T02:12:40;7.00;99.90
27619;DHT22;15039;50.830;4.730;2023-04-06T02:15:06;7.10;99.90
27619;DHT22;15039;50.830;4.730;2023-04-06T02:17:32;7.00;99.90
27619;DHT22;15039;50.830;4.730;2023-04-06T02:19:58;7.00;99.90
27619;DHT22;15039;50.830;4.730;2023-04-06T02:22:23;7.10;99.90
27619;DHT22;15039;50.830;4.730;2023-04-06T02:24:49;7.10;99.90
27619;DHT22;15039;50.830;4.730;2023-04-06T02:27:15;7.10;99.90
27619;DHT22;15039;50.830;4.730;2023-04-06T02:29:41;6.90;99.90
27619;DHT22;15039;50.830;4.730;2023-04-06T02:32:07;6.90;99.90
27619;DHT22;15039;50.830;4.730;2023-04-06T02:34:33;6.70;99.90
27619;DHT22;15039;50.830;4.730;2023-04-06T02:36:58;6.60;99.90
27619;DHT22;15039;50.830;4.730;2023-04-06T02:39:24;6.50;99.90
27619;DHT22;15039;50.830;4.730;2023-04-06T02:41:49;6.40;99.90
27619;DHT22;15039;50.830;4.730;2023-04-06T02:44:15;6.40;99.90
27619;DHT22;15039;50.830;4.730;2023-04-06T02:46:41;6.40;99.90
27619;DHT22;15039;50.830;4.730;2023-04-06T02:49:07;6.40;99.90
27619;DHT22;15039;50.830;4.730;2023-04-06T02:51:33;6.50;99.90
27619;DHT22;15039;50.830;4.730;2023-04-06T02:53:59;6.60;99.90
27619;DHT22;15039;50.830;4.730;2023-04-06T02:56:24;6.60;99.90
27619;DHT22;15039;50.830;4.730;2023-04-06T02:58:51;6.60;99.90
27619;DHT22;15039;50.830;4.730;2023-04-06T03:01:17;6.50;99.90
27619;DHT22;15039;50.830;4.730;2023-04-06T03:03:43;6.50;99.90
27619;DHT22;15039;50.830;4.730;2023-04-06T03:06:08;6.40;99.90
27619;DHT22;15039;50.830;4.730;2023-04-06T03:08:34;6.50;99.90
27619;DHT22;15039;50.830;4.730;2023-04-06T03:11:00;6.40;99.90
27619;DHT22;15039;50.830;4.730;2023-04-06T03:13:26;6.50;99.90
27619;DHT22;15039;50.830;4.730;2023-04-06T03:15:51;6.40;99.90
27619;DHT22;15039;50.830;4.730;2023-04-06T03:18:24;6.40;99.90
27619;DHT22;15039;50.830;4.730;2023-04-06T03:20:50;6.50;99.90
27619;DHT22;15039;50.830;4.730;2023-04-06T03:23:16;6.40;99.90
27619;DHT22;15039;50.830;4.730;2023-04-06T03:25:42;6.50;99.90
27619;DHT22;15039;50.830;4.730;2023-04-06T03:28:08;6.50;99.90
27619;DHT22;15039;50.830;4.730;2023-04-06T03:30:34;6.50;99.90
27619;DHT22;15039;50.830;4.730;2023-04-06T03:33:00;6.40;99.90
27619;DHT22;15039;50.830;4.730;2023-04-06T03:35:25;6.40;99.90
27619;DHT22;15039;50.830;4.730;2023-04-06T03:37:51;6.40;99.90
27619;DHT22;15039;50.830;4.730;2023-04-06T03:40:17;6.40;99.90
27619;DHT22;15039;50.830;4.730;2023-04-06T03:42:42;6.40;99.90
27619;DHT22;15039;50.830;4.730;2023-04-06T03:45:08;6.40;99.90
27619;DHT22;15039;50.830;4.730;2023-04-06T03:47:34;6.40;99.90
27619;DHT22;15039;50.830;4.730;2023-04-06T03:50:00;6.30;99.90
27619;DHT22;15039;50.830;4.730;2023-04-06T03:52:26;6.40;99.90
27619;DHT22;15039;50.830;4.730;2023-04-06T03:54:52;6.40;99.90
27619;DHT22;15039;50.830;4.730;2023-04-06T03:57:17;6.30;99.90
27619;DHT22;15039;50.830;4.730;2023-04-06T03:59:43;6.30;99.90
27619;DHT22;15039;50.830;4.730;2023-04-06T04:02:09;6.30;99.90
27619;DHT22;15039;50.830;4.730;2023-04-06T04:04:34;6.30;99.90
27619;DHT22;15039;50.830;4.730;2023-04-06T04:07:00;6.20;99.90
27619;DHT22;15039;50.830;4.730;2023-04-06T04:09:26;6.20;99.90
27619;DHT22;15039;50.830;4.730;2023-04-06T04:11:51;6.30;99.90
27619;DHT22;15039;50.830;4.730;2023-04-06T04:14:17;6.20;99.90
27619;DHT22;15039;50.830;4.730;2023-04-06T04:16:43;6.20;99.90
27619;DHT22;15039;50.830;4.730;2023-04-06T04:19:08;6.20;99.90
27619;DHT22;15039;50.830;4.730;2023-04-06T04:21:43;6.30;99.90
27619;DHT22;15039;50.830;4.730;2023-04-06T04:24:09;6.30;99.90
27619;DHT22;15039;50.830;4.730;2023-04-06T04:26:35;6.40;99.90
27619;DHT22;15039;50.830;4.730;2023-04-06T04:29:00;6.40;99.90
27619;DHT22;15039;50.830;4.730;2023-04-06T04:31:26;6.40;99.90
27619;DHT22;15039;50.830;4.730;2023-04-06T04:33:52;6.50;99.90
27619;DHT22;15039;50.830;4.730;2023-04-06T04:36:17;6.50;99.90
27619;DHT22;15039;50.830;4.730;2023-04-06T04:38:43;6.50;99.90
27619;DHT22;15039;50.830;4.730;2023-04-06T04:41:09;6.50;99.90
27619;DHT22;15039;50.830;4.730;2023-04-06T04:43:34;6.50;99.90
27619;DHT22;15039;50.830;4.730;2023-04-06T04:46:00;6.50;99.90
27619;DHT22;15039;50.830;4.730;2023-04-06T04:48:26;6.50;99.90
27619;DHT22;15039;50.830;4.730;2023-04-06T04:50:52;6.60;99.90
27619;DHT22;15039;50.830;4.730;2023-04-06T04:53:17;6.60;99.90
27619;DHT22;15039;50.830;4.730;2023-04-06T04:55:43;6.50;99.90
27619;DHT22;15039;50.830;4.730;2023-04-06T04:58:08;6.50;99.90
27619;DHT22;15039;50.830;4.730;2023-04-06T05:00:36;6.50;99.90
27619;DHT22;15039;50.830;4.730;2023-04-06T05:03:04;6.40;99.90
27619;DHT22;15039;50.830;4.730;2023-04-06T05:05:30;6.50;99.90
27619;DHT22;15039;50.830;4.730;2023-04-06T05:07:56;6.60;99.90
27619;DHT22;15039;50.830;4.730;2023-04-06T05:10:22;6.60;99.90
27619;DHT22;15039;50.830;4.730;2023-04-06T05:12:47;6.60;99.90
27619;DHT22;15039;50.830;4.730;2023-04-06T05:15:13;6.60;99.90
27619;DHT22;15039;50.830;4.730;2023-04-06T05:17:39;6.60;99.90
27619;DHT22;15039;50.830;4.730;2023-04-06T05:20:05;6.60;99.90
27619;DHT22;15039;50.830;4.730;2023-04-06T05:22:31;6.70;99.90
27619;DHT22;15039;50.830;4.730;2023-04-06T05:24:57;6.70;99.90
27619;DHT22;15039;50.830;4.730;2023-04-06T05:27:22;6.70;99.90
27619;DHT22;15039;50.830;4.730;2023-04-06T05:29:48;6.70;99.90
27619;DHT22;15039;50.830;4.730;2023-04-06T05:32:14;6.70;99.90
27619;DHT22;15039;50.830;4.730;2023-04-06T05:34:40;6.70;99.90
27619;DHT22;15039;50.830;4.730;2023-04-06T05:37:06;6.80;99.90
27619;DHT22;15039;50.830;4.730;2023-04-06T05:39:31;6.80;99.90
27619;DHT22;15039;50.830;4.730;2023-04-06T05:41:57;6.80;99.90
27619;DHT22;15039;50.830;4.730;2023-04-06T05:44:23;6.80;99.90
27619;DHT22;15039;50.830;4.730;2023-04-06T05:46:48;6.80;99.90
27619;DHT22;15039;50.830;4.730;2023-04-06T05:49:14;6.90;99.90
27619;DHT22;15039;50.830;4.730;2023-04-06T05:51:40;6.90;99.90
27619;DHT22;15039;50.830;4.730;2023-04-06T05:54:05;7.00;99.90
27619;DHT22;15039;50.830;4.730;2023-04-06T05:56:31;7.00;99.90
27619;DHT22;15039;50.830;4.730;2023-04-06T05:58:57;7.00;99.90
27619;DHT22;15039;50.830;4.730;2023-04-06T06:01:24;6.90;99.90
27619;DHT22;15039;50.830;4.730;2023-04-06T06:03:50;7.10;99.90
27619;DHT22;15039;50.830;4.730;2023-04-06T06:06:15;7.20;99.90
27619;DHT22;15039;50.830;4.730;2023-04-06T06:08:41;7.20;99.90
27619;DHT22;15039;50.830;4.730;2023-04-06T06:11:07;7.20;99.90
27619;DHT22;15039;50.830;4.730;2023-04-06T06:13:32;7.30;99.90
27619;DHT22;15039;50.830;4.730;2023-04-06T06:15:58;7.30;99.90
27619;DHT22;15039;50.830;4.730;2023-04-06T06:18:23;7.30;99.90
27619;DHT22;15039;50.830;4.730;2023-04-06T06:20:49;7.30;99.90
27619;DHT22;15039;50.830;4.730;2023-04-06T06:23:15;7.30;99.90
27619;DHT22;15039;50.830;4.730;2023-04-06T06:25:41;7.40;99.90
27619;DHT22;15039;50.830;4.730;2023-04-06T06:28:06;7.40;99.90
27619;DHT22;15039;50.830;4.730;2023-04-06T06:30:32;7.50;99.90
27619;DHT22;15039;50.830;4.730;2023-04-06T06:32:58;7.50;99.90
27619;DHT22;15039;50.830;4.730;2023-04-06T06:35:23;7.50;99.90
27619;DHT22;15039;50.830;4.730;2023-04-06T06:37:49;7.50;99.90
27619;DHT22;15039;50.830;4.730;2023-04-06T06:40:15;7.60;99.90
27619;DHT22;15039;50.830;4.730;2023-04-06T06:42:43;7.70;99.90
27619;DHT22;15039;50.830;4.730;2023-04-06T06:45:09;7.80;99.90
27619;DHT22;15039;50.830;4.730;2023-04-06T06:47:35;7.80;99.90
27619;DHT22;15039;50.830;4.730;2023-04-06T06:50:01;7.90;99.90
27619;DHT22;15039;50.830;4.730;2023-04-06T06:52:28;7.90;99.90
27619;DHT22;15039;50.830;4.730;2023-04-06T06:54:54;8.00;99.90
27619;DHT22;15039;50.830;4.730;2023-04-06T06:57:19;8.10;99.90
27619;DHT22;15039;50.830;4.730;2023-04-06T06:59:45;8.20;99.90
27619;DHT22;15039;50.830;4.730;2023-04-06T07:02:11;8.20;99.90
27619;DHT22;15039;50.830;4.730;2023-04-06T07:04:36;8.20;99.90
27619;DHT22;15039;50.830;4.730;2023-04-06T07:07:02;8.30;99.90
27619;DHT22;15039;50.830;4.730;2023-04-06T07:09:28;8.30;99.90
27619;DHT22;15039;50.830;4.730;2023-04-06T07:11:54;8.40;99.90
27619;DHT22;15039;50.830;4.730;2023-04-06T07:14:22;8.40;99.90
27619;DHT22;15039;50.830;4.730;2023-04-06T07:16:47;8.50;99.90
27619;DHT22;15039;50.830;4.730;2023-04-06T07:19:15;8.70;99.90
27619;DHT22;15039;50.830;4.730;2023-04-06T07:21:41;8.80;99.90
27619;DHT22;15039;50.830;4.730;2023-04-06T07:24:06;8.70;99.90
27619;DHT22;15039;50.830;4.730;2023-04-06T07:26:32;8.80;99.90
27619;DHT22;15039;50.830;4.730;2023-04-06T07:28:58;8.80;99.90
27619;DHT22;15039;50.830;4.730;2023-04-06T07:31:23;8.80;99.90
27619;DHT22;15039;50.830;4.730;2023-04-06T07:33:49;8.70;99.90
27619;DHT22;15039;50.830;4.730;2023-04-06T07:36:15;8.70;99.90
27619;DHT22;15039;50.830;4.730;2023-04-06T07:38:42;8.80;99.90
27619;DHT22;15039;50.830;4.730;2023-04-06T07:41:08;8.60;99.90
27619;DHT22;15039;50.830;4.730;2023-04-06T07:43:33;8.80;99.90
27619;DHT22;15039;50.830;4.730;2023-04-06T07:45:59;8.70;99.90
27619;DHT22;15039;50.830;4.730;2023-04-06T07:48:26;8.80;99.90
27619;DHT22;15039;50.830;4.730;2023-04-06T07:50:51;8.80;99.90
27619;DHT22;15039;50.830;4.730;2023-04-06T07:53:17;8.80;99.90
27619;DHT22;15039;50.830;4.730;2023-04-06T07:55:43;8.80;99.90
27619;DHT22;15039;50.830;4.730;2023-04-06T07:58:08;8.90;99.90
27619;DHT22;15039;50.830;4.730;2023-04-06T08:00:34;8.90;99.90
27619;DHT22;15039;50.830;4.730;2023-04-06T08:03:00;9.00;99.90
27619;DHT22;15039;50.830;4.730;2023-04-06T08:05:26;9.10;99.90
27619;DHT22;15039;50.830;4.730;2023-04-06T08:07:51;9.10;99.90
27619;DHT22;15039;50.830;4.730;2023-04-06T08:10:17;9.10;99.90
27619;DHT22;15039;50.830;4.730;2023-04-06T08:12:43;9.10;99.90
27619;DHT22;15039;50.830;4.730;2023-04-06T08:15:09;9.30;99.90
27619;DHT22;15039;50.830;4.730;2023-04-06T08:17:35;9.30;99.90
27619;DHT22;15039;50.830;4.730;2023-04-06T08:20:00;9.30;99.90
27619;DHT22;15039;50.830;4.730;2023-04-06T08:22:27;9.30;99.90
27619;DHT22;15039;50.830;4.730;2023-04-06T08:24:53;9.40;99.90
27619;DHT22;15039;50.830;4.730;2023-04-06T08:27:18;9.40;99.90
27619;DHT22;15039;50.830;4.730;2023-04-06T08:29:44;9.50;99.90
27619;DHT22;15039;50.830;4.730;2023-04-06T08:32:10;9.40;99.90
27619;DHT22;15039;50.830;4.730;2023-04-06T08:34:36;9.40;99.90
27619;DHT22;15039;50.830;4.730;2023-04-06T08:37:01;9.40;99.90
27619;DHT22;15039;50.830;4.730;2023-04-06T08:39:27;9.40;99.90
27619;DHT22;15039;50.830;4.730;2023-04-06T08:41:55;9.40;99.90
27619;DHT22;15039;50.830;4.730;2023-04-06T08:44:25;9.40;99.90
27619;DHT22;15039;50.830;4.730;2023-04-06T08:46:50;9.40;99.90
27619;DHT22;15039;50.830;4.730;2023-04-06T08:49:18;9.40;99.90
27619;DHT22;15039;50.830;4.730;2023-04-06T08:51:44;9.30;99.90
27619;DHT22;15039;50.830;4.730;2023-04-06T08:54:10;9.40;99.90
27619;DHT22;15039;50.830;4.730;2023-04-06T08:56:38;9.50;99.90
27619;DHT22;15039;50.830;4.730;2023-04-06T08:59:05;9.60;99.90
27619;DHT22;15039;50.830;4.730;2023-04-06T09:01:31;9.70;99.90
27619;DHT22;15039;50.830;4.730;2023-04-06T09:03:59;9.70;99.90
27619;DHT22;15039;50.830;4.730;2023-04-06T09:06:30;9.80;99.90
27619;DHT22;15039;50.830;4.730;2023-04-06T09:08:56;9.90;99.90
27619;DHT22;15039;50.830;4.730;2023-04-06T09:11:23;9.80;99.90
27619;DHT22;15039;50.830;4.730;2023-04-06T09:13:51;9.90;99.90
27619;DHT22;15039;50.830;4.730;2023-04-06T09:16:18;9.90;99.90
27619;DHT22;15039;50.830;4.730;2023-04-06T09:18:44;9.80;99.90
27619;DHT22;15039;50.830;4.730;2023-04-06T09:21:10;9.80;99.90
27619;DHT22;15039;50.830;4.730;2023-04-06T09:23:37;9.90;99.90
27619;DHT22;15039;50.830;4.730;2023-04-06T09:26:09;9.80;99.90
27619;DHT22;15039;50.830;4.730;2023-04-06T09:29:01;9.80;99.90
27619;DHT22;15039;50.830;4.730;2023-04-06T09:31:30;9.80;99.90
27619;DHT22;15039;50.830;4.730;2023-04-06T09:33:58;9.90;99.90
27619;DHT22;15039;50.830;4.730;2023-04-06T09:36:35;9.90;99.90
27619;DHT22;15039;50.830;4.730;2023-04-06T09:39:05;10.00;99.90
27619;DHT22;15039;50.830;4.730;2023-04-06T09:41:32;9.90;99.90
27619;DHT22;15039;50.830;4.730;2023-04-06T09:44:05;9.90;99.90
27619;DHT22;15039;50.830;4.730;2023-04-06T09:46:33;9.90;99.90
27619;DHT22;15039;50.830;4.730;2023-04-06T09:49:02;9.90;99.90
27619;DHT22;15039;50.830;4.730;2023-04-06T09:51:30;9.90;99.90
27619;DHT22;15039;50.830;4.730;2023-04-06T09:53:57;9.90;99.90
27619;DHT22;15039;50.830;4.730;2023-04-06T09:56:30;9.90;99.90
27619;DHT22;15039;50.830;4.730;2023-04-06T09:59:02;9.90;99.90
27619;DHT22;15039;50.830;4.730;2023-04-06T10:01:30;9.90;99.90
27619;DHT22;15039;50.830;4.730;2023-04-06T10:06:27;10.10;99.90
27619;DHT22;15039;50.830;4.730;2023-04-06T10:08:55;9.90;99.90
27619;DHT22;15039;50.830;4.730;2023-04-06T10:11:22;9.70;99.90
27619;DHT22;15039;50.830;4.730;2023-04-06T10:13:48;9.50;99.90
27619;DHT22;15039;50.830;4.730;2023-04-06T10:16:17;9.40;99.90
27619;DHT22;15039;50.830;4.730;2023-04-06T10:18:47;9.40;99.90
27619;DHT22;15039;50.830;4.730;2023-04-06T10:21:17;9.40;99.90
27619;DHT22;15039;50.830;4.730;2023-04-06T10:23:51;9.30;99.90
27619;DHT22;15039;50.830;4.730;2023-04-06T10:26:20;9.40;99.90
27619;DHT22;15039;50.830;4.730;2023-04-06T10:28:48;9.50;99.90
27619;DHT22;15039;50.830;4.730;2023-04-06T10:31:14;9.50;99.90
27619;DHT22;15039;50.830;4.730;2023-04-06T10:33:40;9.50;99.90
27619;DHT22;15039;50.830;4.730;2023-04-06T10:36:14;9.70;99.90
27619;DHT22;15039;50.830;4.730;2023-04-06T10:38:41;9.70;99.90
27619;DHT22;15039;50.830;4.730;2023-04-06T10:41:08;9.80;99.90
27619;DHT22;15039;50.830;4.730;2023-04-06T10:43:37;9.90;99.90
27619;DHT22;15039;50.830;4.730;2023-04-06T10:46:04;9.90;99.90
27619;DHT22;15039;50.830;4.730;2023-04-06T10:48:44;10.00;99.90
27619;DHT22;15039;50.830;4.730;2023-04-06T10:51:17;10.10;99.90
27619;DHT22;15039;50.830;4.730;2023-04-06T10:53:45;10.00;99.90
27619;DHT22;15039;50.830;4.730;2023-04-06T10:56:14;10.00;99.90
27619;DHT22;15039;50.830;4.730;2023-04-06T10:58:51;9.90;99.90
27619;DHT22;15039;50.830;4.730;2023-04-06T11:01:19;9.90;99.90
27619;DHT22;15039;50.830;4.730;2023-04-06T11:03:49;9.70;99.90
27619;DHT22;15039;50.830;4.730;2023-04-06T11:06:23;9.70;99.90
27619;DHT22;15039;50.830;4.730;2023-04-06T11:08:50;9.70;99.90
27619;DHT22;15039;50.830;4.730;2023-04-06T11:11:18;9.70;99.90
27619;DHT22;15039;50.830;4.730;2023-04-06T11:13:55;9.80;99.90
27619;DHT22;15039;50.830;4.730;2023-04-06T11:16:26;9.80;99.90
27619;DHT22;15039;50.830;4.730;2023-04-06T11:18:57;9.80;99.90
27619;DHT22;15039;50.830;4.730;2023-04-06T11:21:42;9.80;99.90
27619;DHT22;15039;50.830;4.730;2023-04-06T11:26:42;9.80;99.90
27619;DHT22;15039;50.830;4.730;2023-04-06T11:29:10;9.90;99.90
27619;DHT22;15039;50.830;4.730;2023-04-06T11:31:45;10.00;99.90
27619;DHT22;15039;50.830;4.730;2023-04-06T11:34:19;10.10;99.90
27619;DHT22;15039;50.830;4.730;2023-04-06T11:36:45;10.10;99.90
27619;DHT22;15039;50.830;4.730;2023-04-06T11:39:20;10.10;99.90
27619;DHT22;15039;50.830;4.730;2023-04-06T11:41:51;9.90;99.90
27619;DHT22;15039;50.830;4.730;2023-04-06T11:46:57;9.80;99.90
27619;DHT22;15039;50.830;4.730;2023-04-06T11:49:27;9.80;99.90
27619;DHT22;15039;50.830;4.730;2023-04-06T11:51:54;9.80;99.90
27619;DHT22;15039;50.830;4.730;2023-04-06T11:54:30;9.70;99.90
27619;DHT22;15039;50.830;4.730;2023-04-06T11:56:56;9.80;99.90
27619;DHT22;15039;50.830;4.730;2023-04-06T11:59:21;9.80;99.90
27619;DHT22;15039;50.830;4.730;2023-04-06T12:01:48;9.80;99.90
27619;DHT22;15039;50.830;4.730;2023-04-06T12:04:14;9.90;99.90
27619;DHT22;15039;50.830;4.730;2023-04-06T12:06:40;10.00;99.90
27619;DHT22;15039;50.830;4.730;2023-04-06T12:09:05;10.00;99.90
27619;DHT22;15039;50.830;4.730;2023-04-06T12:11:31;10.10;99.90
27619;DHT22;15039;50.830;4.730;2023-04-06T12:13:57;10.20;99.90
27619;DHT22;15039;50.830;4.730;2023-04-06T12:16:24;10.20;99.90
27619;DHT22;15039;50.830;4.730;2023-04-06T12:18:51;10.30;99.90
27619;DHT22;15039;50.830;4.730;2023-04-06T12:21:16;10.30;99.90
27619;DHT22;15039;50.830;4.730;2023-04-06T12:23:42;10.20;99.90
27619;DHT22;15039;50.830;4.730;2023-04-06T12:26:08;10.30;99.90
27619;DHT22;15039;50.830;4.730;2023-04-06T12:28:36;10.30;99.90
27619;DHT22;15039;50.830;4.730;2023-04-06T12:31:01;10.30;99.90
27619;DHT22;15039;50.830;4.730;2023-04-06T12:33:27;10.20;99.90
27619;DHT22;15039;50.830;4.730;2023-04-06T12:35:53;10.50;99.90
27619;DHT22;15039;50.830;4.730;2023-04-06T12:38:18;10.70;99.90
27619;DHT22;15039;50.830;4.730;2023-04-06T12:40:45;10.80;99.90
27619;DHT22;15039;50.830;4.730;2023-04-06T12:43:11;10.90;99.90
27619;DHT22;15039;50.830;4.730;2023-04-06T12:45:39;10.90;99.90
27619;DHT22;15039;50.830;4.730;2023-04-06T12:48:05;11.00;99.90
27619;DHT22;15039;50.830;4.730;2023-04-06T12:50:34;11.00;99.90
27619;DHT22;15039;50.830;4.730;2023-04-06T12:53:00;11.00;99.90
27619;DHT22;15039;50.830;4.730;2023-04-06T12:55:34;11.10;99.90
27619;DHT22;15039;50.830;4.730;2023-04-06T12:57:59;11.10;99.90
27619;DHT22;15039;50.830;4.730;2023-04-06T13:00:25;11.00;99.90
27619;DHT22;15039;50.830;4.730;2023-04-06T13:02:51;10.80;99.90
27619;DHT22;15039;50.830;4.730;2023-04-06T13:05:17;10.60;99.90
27619;DHT22;15039;50.830;4.730;2023-04-06T13:07:44;10.60;99.90
27619;DHT22;15039;50.830;4.730;2023-04-06T13:10:10;10.70;99.90
27619;DHT22;15039;50.830;4.730;2023-04-06T13:12:36;10.70;99.90
27619;DHT22;15039;50.830;4.730;2023-04-06T13:15:02;10.70;99.90
27619;DHT22;15039;50.830;4.730;2023-04-06T13:17:29;10.60;99.90
27619;DHT22;15039;50.830;4.730;2023-04-06T13:19:57;10.50;99.90
27619;DHT22;15039;50.830;4.730;2023-04-06T13:22:23;10.40;99.90
27619;DHT22;15039;50.830;4.730;2023-04-06T13:24:54;10.30;99.90
27619;DHT22;15039;50.830;4.730;2023-04-06T13:27:20;10.20;99.90
27619;DHT22;15039;50.830;4.730;2023-04-06T13:29:46;10.00;99.90
27619;DHT22;15039;50.830;4.730;2023-04-06T13:32:11;9.80;99.90
27619;DHT22;15039;50.830;4.730;2023-04-06T13:34:37;9.70;99.90
27619;DHT22;15039;50.830;4.730;2023-04-06T13:37:03;9.70;99.90
27619;DHT22;15039;50.830;4.730;2023-04-06T13:39:28;9.70;99.90
27619;DHT22;15039;50.830;4.730;2023-04-06T13:42:00;9.70;99.90
27619;DHT22;15039;50.830;4.730;2023-04-06T13:44:28;9.70;99.90
27619;DHT22;15039;50.830;4.730;2023-04-06T13:46:54;9.60;99.90
27619;DHT22;15039;50.830;4.730;2023-04-06T13:49:22;9.70;99.90
27619;DHT22;15039;50.830;4.730;2023-04-06T13:51:48;9.80;99.90
27619;DHT22;15039;50.830;4.730;2023-04-06T13:54:14;9.70;99.90
27619;DHT22;15039;50.830;4.730;2023-04-06T13:56:40;9.80;99.90
27619;DHT22;15039;50.830;4.730;2023-04-06T13:59:08;9.80;99.90
27619;DHT22;15039;50.830;4.730;2023-04-06T14:01:33;9.80;99.90
27619;DHT22;15039;50.830;4.730;2023-04-06T14:03:59;9.90;99.90
27619;DHT22;15039;50.830;4.730;2023-04-06T14:06:53;9.90;99.90
27619;DHT22;15039;50.830;4.730;2023-04-06T14:09:21;10.00;99.90
27619;DHT22;15039;50.830;4.730;2023-04-06T14:11:47;10.00;99.90
27619;DHT22;15039;50.830;4.730;2023-04-06T14:14:13;10.00;99.90
27619;DHT22;15039;50.830;4.730;2023-04-06T14:16:38;10.10;99.90
27619;DHT22;15039;50.830;4.730;2023-04-06T14:19:04;10.00;99.90
27619;DHT22;15039;50.830;4.730;2023-04-06T14:21:31;10.00;99.90
27619;DHT22;15039;50.830;4.730;2023-04-06T14:23:57;10.00;99.90
27619;DHT22;15039;50.830;4.730;2023-04-06T14:26:23;10.10;99.90
27619;DHT22;15039;50.830;4.730;2023-04-06T14:28:48;10.00;99.90
27619;DHT22;15039;50.830;4.730;2023-04-06T14:31:14;10.00;99.90
27619;DHT22;15039;50.830;4.730;2023-04-06T14:33:41;10.00;99.90
27619;DHT22;15039;50.830;4.730;2023-04-06T14:36:08;10.10;99.90
27619;DHT22;15039;50.830;4.730;2023-04-06T14:38:34;10.00;99.90
27619;DHT22;15039;50.830;4.730;2023-04-06T14:41:00;10.10;99.90
27619;DHT22;15039;50.830;4.730;2023-04-06T14:43:25;10.10;99.90
27619;DHT22;15039;50.830;4.730;2023-04-06T14:45:52;10.00;99.90
27619;DHT22;15039;50.830;4.730;2023-04-06T14:48:17;10.00;99.90
27619;DHT22;15039;50.830;4.730;2023-04-06T14:50:54;9.90;99.90
27619;DHT22;15039;50.830;4.730;2023-04-06T14:53:22;9.90;99.90
27619;DHT22;15039;50.830;4.730;2023-04-06T14:55:47;9.90;99.90
27619;DHT22;15039;50.830;4.730;2023-04-06T14:58:15;9.90;99.90
27619;DHT22;15039;50.830;4.730;2023-04-06T15:00:41;9.90;99.90
27619;DHT22;15039;50.830;4.730;2023-04-06T15:03:06;9.90;99.90
27619;DHT22;15039;50.830;4.730;2023-04-06T15:05:34;9.90;99.90
27619;DHT22;15039;50.830;4.730;2023-04-06T15:08:00;9.90;99.90
27619;DHT22;15039;50.830;4.730;2023-04-06T15:10:26;9.90;99.90
27619;DHT22;15039;50.830;4.730;2023-04-06T15:12:51;10.00;99.90
27619;DHT22;15039;50.830;4.730;2023-04-06T15:15:17;10.00;99.90
27619;DHT22;15039;50.830;4.730;2023-04-06T15:17:43;10.10;99.90
27619;DHT22;15039;50.830;4.730;2023-04-06T15:20:09;10.20;99.90
27619;DHT22;15039;50.830;4.730;2023-04-06T15:22:35;10.20;99.90
27619;DHT22;15039;50.830;4.730;2023-04-06T15:25:00;10.30;99.90
27619;DHT22;15039;50.830;4.730;2023-04-06T15:27:26;10.40;99.90
27619;DHT22;15039;50.830;4.730;2023-04-06T15:29:52;10.40;99.90
27619;DHT22;15039;50.830;4.730;2023-04-06T15:32:17;10.50;99.90
27619;DHT22;15039;50.830;4.730;2023-04-06T15:34:43;10.60;99.90
27619;DHT22;15039;50.830;4.730;2023-04-06T15:37:09;10.50;99.90
27619;DHT22;15039;50.830;4.730;2023-04-06T15:39:34;10.60;99.90
27619;DHT22;15039;50.830;4.730;2023-04-06T15:42:02;10.60;99.90
27619;DHT22;15039;50.830;4.730;2023-04-06T15:44:28;10.80;99.90
27619;DHT22;15039;50.830;4.730;2023-04-06T15:46:54;10.90;99.90